sensor_id;sensor_type;location;lat;lon;timestamp;temperature;humidity
4399;DHT22;2213;49.720;7.296;2022-11-21T00:01:51;6.80;99.90
4399;DHT22;2213;49.720;7.296;2022-11-21T00:04:23;6.80;99.90
4399;DHT22;2213;49.720;7.296;2022-11-21T00:06:52;6.80;99.90
4399;DHT22;2213;49.720;7.296;2022-11-21T00:09:22;6.80;99.90
4399;DHT22;2213;49.720;7.296;2022-11-21T00:11:52;6.80;99.90
4399;DHT22;2213;49.720;7.296;2022-11-21T00:14:21;6.80;99.90
4399;DHT22;2213;49.720;7.296;2022-11-21T00:16:50;6.80;99.90
4399;DHT22;2213;49.720;7.296;2022-11-21T00:19:25;6.80;99.90
4399;DHT22;2213;49.720;7.296;2022-11-21T00:21:55;6.80;99.90
4399;DHT22;2213;49.720;7.296;2022-11-21T00:24:25;6.70;99.90
4399;DHT22;2213;49.720;7.296;2022-11-21T00:26:55;6.70;99.90
4399;DHT22;2213;49.720;7.296;2022-11-21T00:29:24;6.80;99.90
4399;DHT22;2213;49.720;7.296;2022-11-21T00:31:53;6.80;99.90
4399;DHT22;2213;49.720;7.296;2022-11-21T00:34:23;6.70;99.90
4399;DHT22;2213;49.720;7.296;2022-11-21T00:36:53;6.70;99.90
4399;DHT22;2213;49.720;7.296;2022-11-21T00:39:23;6.60;99.90
4399;DHT22;2213;49.720;7.296;2022-11-21T00:41:53;6.70;99.90
4399;DHT22;2213;49.720;7.296;2022-11-21T00:44:22;6.80;99.90
4399;DHT22;2213;49.720;7.296;2022-11-21T00:46:53;6.70;99.90
4399;DHT22;2213;49.720;7.296;2022-11-21T00:49:24;6.80;99.90
4399;DHT22;2213;49.720;7.296;2022-11-21T00:51:53;6.80;99.90
4399;DHT22;2213;49.720;7.296;2022-11-21T00:54:22;6.80;99.90
4399;DHT22;2213;49.720;7.296;2022-11-21T00:56:52;6.80;99.90
4399;DHT22;2213;49.720;7.296;2022-11-21T00:59:23;6.80;99.90
4399;DHT22;2213;49.720;7.296;2022-11-21T01:01:52;6.80;99.90
4399;DHT22;2213;49.720;7.296;2022-11-21T01:04:20;6.70;99.90
4399;DHT22;2213;49.720;7.296;2022-11-21T01:06:51;6.90;99.90
4399;DHT22;2213;49.720;7.296;2022-11-21T01:09:21;6.90;99.90
4399;DHT22;2213;49.720;7.296;2022-11-21T01:11:50;6.80;99.90
4399;DHT22;2213;49.720;7.296;2022-11-21T01:14:20;6.80;99.90
4399;DHT22;2213;49.720;7.296;2022-11-21T01:16:50;6.80;99.90
4399;DHT22;2213;49.720;7.296;2022-11-21T01:19:21;6.70;99.90
4399;DHT22;2213;49.720;7.296;2022-11-21T01:21:52;6.60;99.90
4399;DHT22;2213;49.720;7.296;2022-11-21T01:24:22;6.60;99.90
4399;DHT22;2213;49.720;7.296;2022-11-21T01:26:51;6.60;99.90
4399;DHT22;2213;49.720;7.296;2022-11-21T01:29:21;6.70;99.90
4399;DHT22;2213;49.720;7.296;2022-11-21T01:31:51;6.60;99.90
4399;DHT22;2213;49.720;7.296;2022-11-21T01:34:21;6.70;99.90
4399;DHT22;2213;49.720;7.296;2022-11-21T01:36:51;6.70;99.90
4399;DHT22;2213;49.720;7.296;2022-11-21T01:39:22;6.70;99.90
4399;DHT22;2213;49.720;7.296;2022-11-21T01:41:51;6.80;99.90
4399;DHT22;2213;49.720;7.296;2022-11-21T01:44:22;6.70;99.90
4399;DHT22;2213;49.720;7.296;2022-11-21T01:46:53;6.70;99.90
4399;DHT22;2213;49.720;7.296;2022-11-21T01:49:25;6.80;99.90
4399;DHT22;2213;49.720;7.296;2022-11-21T01:52:00;6.70;99.90
4399;DHT22;2213;49.720;7.296;2022-11-21T01:54:36;6.80;99.90
4399;DHT22;2213;49.720;7.296;2022-11-21T01:57:12;6.70;99.90
4399;DHT22;2213;49.720;7.296;2022-11-21T01:59:46;6.70;99.90
4399;DHT22;2213;49.720;7.296;2022-11-21T02:02:22;6.70;99.90
4399;DHT22;2213;49.720;7.296;2022-11-21T02:04:55;6.70;99.90
4399;DHT22;2213;49.720;7.296;2022-11-21T02:07:31;6.70;99.90
4399;DHT22;2213;49.720;7.296;2022-11-21T02:10:05;6.70;99.90
4399;DHT22;2213;49.720;7.296;2022-11-21T02:12:40;6.80;99.90
4399;DHT22;2213;49.720;7.296;2022-11-21T02:15:14;6.70;99.90
4399;DHT22;2213;49.720;7.296;2022-11-21T02:17:43;6.70;99.90
4399;DHT22;2213;49.720;7.296;2022-11-21T02:20:14;6.60;99.90
4399;DHT22;2213;49.720;7.296;2022-11-21T02:22:52;6.50;99.90
4399;DHT22;2213;49.720;7.296;2022-11-21T02:25:32;6.50;99.90
4399;DHT22;2213;49.720;7.296;2022-11-21T02:28:06;6.60;99.90
4399;DHT22;2213;49.720;7.296;2022-11-21T02:30:38;6.40;99.90
4399;DHT22;2213;49.720;7.296;2022-11-21T02:33:10;6.50;99.90
4399;DHT22;2213;49.720;7.296;2022-11-21T02:35:40;6.60;99.90
4399;DHT22;2213;49.720;7.296;2022-11-21T02:38:15;6.50;99.90
4399;DHT22;2213;49.720;7.296;2022-11-21T02:40:52;6.60;99.90
4399;DHT22;2213;49.720;7.296;2022-11-21T02:43:29;6.50;99.90
4399;DHT22;2213;49.720;7.296;2022-11-21T02:46:04;6.40;99.90
4399;DHT22;2213;49.720;7.296;2022-11-21T02:48:36;6.50;99.90
4399;DHT22;2213;49.720;7.296;2022-11-21T02:51:06;6.40;99.90
4399;DHT22;2213;49.720;7.296;2022-11-21T02:53:35;6.50;99.90
4399;DHT22;2213;49.720;7.296;2022-11-21T02:56:06;6.40;99.90
4399;DHT22;2213;49.720;7.296;2022-11-21T02:58:35;6.50;99.90
4399;DHT22;2213;49.720;7.296;2022-11-21T03:01:04;6.50;99.90
4399;DHT22;2213;49.720;7.296;2022-11-21T03:03:33;6.50;99.90
4399;DHT22;2213;49.720;7.296;2022-11-21T03:06:04;6.50;99.90
4399;DHT22;2213;49.720;7.296;2022-11-21T03:08:33;6.50;99.90
4399;DHT22;2213;49.720;7.296;2022-11-21T03:11:04;6.50;99.90
4399;DHT22;2213;49.720;7.296;2022-11-21T03:13:35;6.50;99.90
4399;DHT22;2213;49.720;7.296;2022-11-21T03:16:05;6.50;99.90
4399;DHT22;2213;49.720;7.296;2022-11-21T03:18:35;6.50;99.90
4399;DHT22;2213;49.720;7.296;2022-11-21T03:21:05;6.50;99.90
4399;DHT22;2213;49.720;7.296;2022-11-21T03:23:34;6.50;99.90
4399;DHT22;2213;49.720;7.296;2022-11-21T03:26:06;6.50;99.90
4399;DHT22;2213;49.720;7.296;2022-11-21T03:28:37;6.50;99.90
4399;DHT22;2213;49.720;7.296;2022-11-21T03:31:08;6.50;99.90
4399;DHT22;2213;49.720;7.296;2022-11-21T03:33:37;6.50;99.90
4399;DHT22;2213;49.720;7.296;2022-11-21T03:36:08;6.60;99.90
4399;DHT22;2213;49.720;7.296;2022-11-21T03:38:38;6.60;99.90
4399;DHT22;2213;49.720;7.296;2022-11-21T03:41:10;6.50;99.90
4399;DHT22;2213;49.720;7.296;2022-11-21T03:43:54;6.40;99.90
4399;DHT22;2213;49.720;7.296;2022-11-21T03:46:23;6.40;99.90
4399;DHT22;2213;49.720;7.296;2022-11-21T03:48:53;6.40;99.90
4399;DHT22;2213;49.720;7.296;2022-11-21T03:51:24;6.50;99.90
4399;DHT22;2213;49.720;7.296;2022-11-21T03:53:53;6.50;99.90
4399;DHT22;2213;49.720;7.296;2022-11-21T03:56:27;6.50;99.90
4399;DHT22;2213;49.720;7.296;2022-11-21T03:58:56;6.60;99.90
4399;DHT22;2213;49.720;7.296;2022-11-21T04:01:25;6.60;99.90
4399;DHT22;2213;49.720;7.296;2022-11-21T04:04:01;6.50;99.90
4399;DHT22;2213;49.720;7.296;2022-11-21T04:06:31;6.50;99.90
4399;DHT22;2213;49.720;7.296;2022-11-21T04:09:00;6.50;99.90
4399;DHT22;2213;49.720;7.296;2022-11-21T04:11:32;6.50;99.90
4399;DHT22;2213;49.720;7.296;2022-11-21T04:14:01;6.50;99.90
4399;DHT22;2213;49.720;7.296;2022-11-21T04:16:31;6.50;99.90
4399;DHT22;2213;49.720;7.296;2022-11-21T04:19:01;6.60;99.90
4399;DHT22;2213;49.720;7.296;2022-11-21T04:21:31;6.60;99.90
4399;DHT22;2213;49.720;7.296;2022-11-21T04:24:01;6.60;99.90
4399;DHT22;2213;49.720;7.296;2022-11-21T04:26:33;6.50;99.90
4399;DHT22;2213;49.720;7.296;2022-11-21T04:29:02;6.50;99.90
4399;DHT22;2213;49.720;7.296;2022-11-21T04:31:32;6.50;99.90
4399;DHT22;2213;49.720;7.296;2022-11-21T04:34:02;6.50;99.90
4399;DHT22;2213;49.720;7.296;2022-11-21T04:36:31;6.50;99.90
4399;DHT22;2213;49.720;7.296;2022-11-21T04:39:01;6.50;99.90
4399;DHT22;2213;49.720;7.296;2022-11-21T04:41:29;6.50;99.90
4399;DHT22;2213;49.720;7.296;2022-11-21T04:44:00;6.50;99.90
4399;DHT22;2213;49.720;7.296;2022-11-21T04:46:30;6.50;99.90
4399;DHT22;2213;49.720;7.296;2022-11-21T04:48:59;6.40;99.90
4399;DHT22;2213;49.720;7.296;2022-11-21T04:51:28;6.40;99.90
4399;DHT22;2213;49.720;7.296;2022-11-21T04:53:57;6.50;99.90
4399;DHT22;2213;49.720;7.296;2022-11-21T04:56:28;6.50;99.90
4399;DHT22;2213;49.720;7.296;2022-11-21T04:58:58;6.50;99.90
4399;DHT22;2213;49.720;7.296;2022-11-21T05:01:27;6.50;99.90
4399;DHT22;2213;49.720;7.296;2022-11-21T05:03:57;6.40;99.90
4399;DHT22;2213;49.720;7.296;2022-11-21T05:06:26;6.40;99.90
4399;DHT22;2213;49.720;7.296;2022-11-21T05:08:55;6.30;99.90
4399;DHT22;2213;49.720;7.296;2022-11-21T05:11:25;6.30;99.90
4399;DHT22;2213;49.720;7.296;2022-11-21T05:14:14;6.20;99.90
4399;DHT22;2213;49.720;7.296;2022-11-21T05:16:44;6.30;99.90
4399;DHT22;2213;49.720;7.296;2022-11-21T05:19:13;6.30;99.90
4399;DHT22;2213;49.720;7.296;2022-11-21T05:21:43;6.30;99.90
4399;DHT22;2213;49.720;7.296;2022-11-21T05:24:12;6.30;99.90
4399;DHT22;2213;49.720;7.296;2022-11-21T05:26:41;6.30;99.90
4399;DHT22;2213;49.720;7.296;2022-11-21T05:29:12;6.40;99.90
4399;DHT22;2213;49.720;7.296;2022-11-21T05:31:42;6.30;99.90
4399;DHT22;2213;49.720;7.296;2022-11-21T05:34:12;6.30;99.90
4399;DHT22;2213;49.720;7.296;2022-11-21T05:36:42;6.40;99.90
4399;DHT22;2213;49.720;7.296;2022-11-21T05:39:12;6.40;99.90
4399;DHT22;2213;49.720;7.296;2022-11-21T05:41:42;6.30;99.90
4399;DHT22;2213;49.720;7.296;2022-11-21T05:44:14;6.30;99.90
4399;DHT22;2213;49.720;7.296;2022-11-21T05:46:43;6.30;99.90
4399;DHT22;2213;49.720;7.296;2022-11-21T05:49:12;6.30;99.90
4399;DHT22;2213;49.720;7.296;2022-11-21T05:51:42;6.30;99.90
4399;DHT22;2213;49.720;7.296;2022-11-21T05:54:12;6.30;99.90
4399;DHT22;2213;49.720;7.296;2022-11-21T05:56:42;6.30;99.90
4399;DHT22;2213;49.720;7.296;2022-11-21T05:59:13;6.30;99.90
4399;DHT22;2213;49.720;7.296;2022-11-21T06:01:44;6.30;99.90
4399;DHT22;2213;49.720;7.296;2022-11-21T06:04:31;6.20;99.90
4399;DHT22;2213;49.720;7.296;2022-11-21T06:07:00;6.40;99.90
4399;DHT22;2213;49.720;7.296;2022-11-21T06:09:32;6.30;99.90
4399;DHT22;2213;49.720;7.296;2022-11-21T06:12:01;6.30;99.90
4399;DHT22;2213;49.720;7.296;2022-11-21T06:14:33;6.30;99.90
4399;DHT22;2213;49.720;7.296;2022-11-21T06:17:03;6.20;99.90
4399;DHT22;2213;49.720;7.296;2022-11-21T06:19:33;6.20;99.90
4399;DHT22;2213;49.720;7.296;2022-11-21T06:22:02;6.20;99.90
4399;DHT22;2213;49.720;7.296;2022-11-21T06:24:33;6.20;99.90
4399;DHT22;2213;49.720;7.296;2022-11-21T06:27:03;6.20;99.90
4399;DHT22;2213;49.720;7.296;2022-11-21T06:29:33;6.10;99.90
4399;DHT22;2213;49.720;7.296;2022-11-21T06:32:02;6.00;99.90
4399;DHT22;2213;49.720;7.296;2022-11-21T06:34:31;6.00;99.90
4399;DHT22;2213;49.720;7.296;2022-11-21T06:37:01;5.90;99.90
4399;DHT22;2213;49.720;7.296;2022-11-21T06:39:31;5.90;99.90
4399;DHT22;2213;49.720;7.296;2022-11-21T06:42:00;5.90;99.90
4399;DHT22;2213;49.720;7.296;2022-11-21T06:44:31;5.80;99.90
4399;DHT22;2213;49.720;7.296;2022-11-21T06:47:01;5.70;99.90
4399;DHT22;2213;49.720;7.296;2022-11-21T06:49:30;5.60;99.90
4399;DHT22;2213;49.720;7.296;2022-11-21T06:51:59;5.70;99.90
4399;DHT22;2213;49.720;7.296;2022-11-21T06:54:29;5.70;99.90
4399;DHT22;2213;49.720;7.296;2022-11-21T06:57:03;5.70;99.90
4399;DHT22;2213;49.720;7.296;2022-11-21T06:59:34;5.60;99.90
4399;DHT22;2213;49.720;7.296;2022-11-21T07:02:05;5.60;99.90
4399;DHT22;2213;49.720;7.296;2022-11-21T07:04:34;5.60;99.90
4399;DHT22;2213;49.720;7.296;2022-11-21T07:07:04;5.50;99.90
4399;DHT22;2213;49.720;7.296;2022-11-21T07:09:34;5.50;99.90
4399;DHT22;2213;49.720;7.296;2022-11-21T07:12:03;5.70;99.90
4399;DHT22;2213;49.720;7.296;2022-11-21T07:14:51;5.70;99.90
4399;DHT22;2213;49.720;7.296;2022-11-21T07:17:22;5.70;99.90
4399;DHT22;2213;49.720;7.296;2022-11-21T07:19:52;5.80;99.90
4399;DHT22;2213;49.720;7.296;2022-11-21T07:22:22;5.70;99.90
4399;DHT22;2213;49.720;7.296;2022-11-21T07:24:51;5.70;99.90
4399;DHT22;2213;49.720;7.296;2022-11-21T07:27:22;5.80;99.90
4399;DHT22;2213;49.720;7.296;2022-11-21T07:29:53;5.80;99.90
4399;DHT22;2213;49.720;7.296;2022-11-21T07:32:25;5.80;99.90
4399;DHT22;2213;49.720;7.296;2022-11-21T07:34:54;5.80;99.90
4399;DHT22;2213;49.720;7.296;2022-11-21T07:37:24;5.90;99.90
4399;DHT22;2213;49.720;7.296;2022-11-21T07:39:53;5.90;99.90
4399;DHT22;2213;49.720;7.296;2022-11-21T07:42:25;5.90;99.90
4399;DHT22;2213;49.720;7.296;2022-11-21T07:44:56;5.80;99.90
4399;DHT22;2213;49.720;7.296;2022-11-21T07:47:26;5.90;99.90
4399;DHT22;2213;49.720;7.296;2022-11-21T07:49:56;5.80;99.90
4399;DHT22;2213;49.720;7.296;2022-11-21T07:52:25;5.90;99.90
4399;DHT22;2213;49.720;7.296;2022-11-21T07:54:56;5.90;99.90
4399;DHT22;2213;49.720;7.296;2022-11-21T07:57:28;5.80;99.90
4399;DHT22;2213;49.720;7.296;2022-11-21T07:59:59;5.80;99.90
4399;DHT22;2213;49.720;7.296;2022-11-21T08:02:29;5.80;99.90
4399;DHT22;2213;49.720;7.296;2022-11-21T08:04:59;5.90;99.90
4399;DHT22;2213;49.720;7.296;2022-11-21T08:07:28;5.80;99.90
4399;DHT22;2213;49.720;7.296;2022-11-21T08:09:59;5.90;99.90
4399;DHT22;2213;49.720;7.296;2022-11-21T08:12:29;5.90;99.90
4399;DHT22;2213;49.720;7.296;2022-11-21T08:15:01;5.90;99.90
4399;DHT22;2213;49.720;7.296;2022-11-21T08:17:33;5.90;99.90
4399;DHT22;2213;49.720;7.296;2022-11-21T08:20:03;6.00;99.90
4399;DHT22;2213;49.720;7.296;2022-11-21T08:22:37;6.00;99.90
4399;DHT22;2213;49.720;7.296;2022-11-21T08:25:08;5.90;99.90
4399;DHT22;2213;49.720;7.296;2022-11-21T08:27:38;6.00;99.90
4399;DHT22;2213;49.720;7.296;2022-11-21T08:30:10;6.00;99.90
4399;DHT22;2213;49.720;7.296;2022-11-21T08:32:42;6.00;99.90
4399;DHT22;2213;49.720;7.296;2022-11-21T08:35:11;6.00;99.90
4399;DHT22;2213;49.720;7.296;2022-11-21T08:37:42;6.00;99.90
4399;DHT22;2213;49.720;7.296;2022-11-21T08:40:11;6.00;99.90
4399;DHT22;2213;49.720;7.296;2022-11-21T08:42:40;6.10;99.90
4399;DHT22;2213;49.720;7.296;2022-11-21T08:45:12;6.10;99.90
4399;DHT22;2213;49.720;7.296;2022-11-21T08:47:42;6.10;99.90
4399;DHT22;2213;49.720;7.296;2022-11-21T08:50:12;6.20;99.90
4399;DHT22;2213;49.720;7.296;2022-11-21T08:52:42;6.10;99.90
4399;DHT22;2213;49.720;7.296;2022-11-21T08:55:11;6.10;99.90
4399;DHT22;2213;49.720;7.296;2022-11-21T08:57:41;6.20;99.90
4399;DHT22;2213;49.720;7.296;2022-11-21T09:00:13;6.10;99.90
4399;DHT22;2213;49.720;7.296;2022-11-21T09:02:43;6.20;99.90
4399;DHT22;2213;49.720;7.296;2022-11-21T09:05:12;6.20;99.90
4399;DHT22;2213;49.720;7.296;2022-11-21T09:07:41;6.20;99.90
4399;DHT22;2213;49.720;7.296;2022-11-21T09:10:11;6.20;99.90
4399;DHT22;2213;49.720;7.296;2022-11-21T09:12:42;6.20;99.90
4399;DHT22;2213;49.720;7.296;2022-11-21T09:15:12;6.20;99.90
4399;DHT22;2213;49.720;7.296;2022-11-21T09:17:59;6.00;99.90
4399;DHT22;2213;49.720;7.296;2022-11-21T09:20:32;6.10;99.90
4399;DHT22;2213;49.720;7.296;2022-11-21T09:23:09;6.00;99.90
4399;DHT22;2213;49.720;7.296;2022-11-21T09:25:39;6.10;99.90
4399;DHT22;2213;49.720;7.296;2022-11-21T09:28:10;6.10;99.90
4399;DHT22;2213;49.720;7.296;2022-11-21T09:30:41;6.10;99.90
4399;DHT22;2213;49.720;7.296;2022-11-21T09:33:12;6.20;99.90
4399;DHT22;2213;49.720;7.296;2022-11-21T09:35:42;6.30;99.90
4399;DHT22;2213;49.720;7.296;2022-11-21T09:38:14;6.30;99.90
4399;DHT22;2213;49.720;7.296;2022-11-21T09:40:51;6.20;99.90
4399;DHT22;2213;49.720;7.296;2022-11-21T09:43:52;6.20;99.90
4399;DHT22;2213;49.720;7.296;2022-11-21T09:46:40;6.30;99.90
4399;DHT22;2213;49.720;7.296;2022-11-21T09:49:16;6.40;99.90
4399;DHT22;2213;49.720;7.296;2022-11-21T09:51:44;6.40;99.90
4399;DHT22;2213;49.720;7.296;2022-11-21T09:54:18;6.40;99.90
4399;DHT22;2213;49.720;7.296;2022-11-21T09:56:56;6.50;99.90
4399;DHT22;2213;49.720;7.296;2022-11-21T09:59:31;6.50;99.90
4399;DHT22;2213;49.720;7.296;2022-11-21T10:02:12;6.50;99.90
4399;DHT22;2213;49.720;7.296;2022-11-21T10:04:43;6.50;99.90
4399;DHT22;2213;49.720;7.296;2022-11-21T10:07:18;6.60;99.90
4399;DHT22;2213;49.720;7.296;2022-11-21T10:10:04;6.60;99.90
4399;DHT22;2213;49.720;7.296;2022-11-21T10:13:01;6.50;99.90
4399;DHT22;2213;49.720;7.296;2022-11-21T10:16:01;6.60;99.90
4399;DHT22;2213;49.720;7.296;2022-11-21T10:19:06;6.60;99.90
4399;DHT22;2213;49.720;7.296;2022-11-21T10:22:12;6.70;99.90
4399;DHT22;2213;49.720;7.296;2022-11-21T10:25:12;6.80;99.90
4399;DHT22;2213;49.720;7.296;2022-11-21T10:27:54;6.80;99.90
4399;DHT22;2213;49.720;7.296;2022-11-21T10:30:30;6.80;99.90
4399;DHT22;2213;49.720;7.296;2022-11-21T10:33:01;6.80;99.90
4399;DHT22;2213;49.720;7.296;2022-11-21T10:35:38;6.90;99.90
4399;DHT22;2213;49.720;7.296;2022-11-21T10:38:17;7.00;99.90
4399;DHT22;2213;49.720;7.296;2022-11-21T10:40:52;7.00;99.90
4399;DHT22;2213;49.720;7.296;2022-11-21T10:43:35;7.00;99.90
4399;DHT22;2213;49.720;7.296;2022-11-21T10:46:28;7.10;99.90
4399;DHT22;2213;49.720;7.296;2022-11-21T10:48:59;7.00;99.90
4399;DHT22;2213;49.720;7.296;2022-11-21T10:51:41;7.00;99.90
4399;DHT22;2213;49.720;7.296;2022-11-21T10:54:15;7.00;99.90
4399;DHT22;2213;49.720;7.296;2022-11-21T10:57:05;7.10;99.90
4399;DHT22;2213;49.720;7.296;2022-11-21T10:59:40;7.20;99.90
4399;DHT22;2213;49.720;7.296;2022-11-21T11:02:24;7.20;99.90
4399;DHT22;2213;49.720;7.296;2022-11-21T11:05:19;7.20;99.90
4399;DHT22;2213;49.720;7.296;2022-11-21T11:08:09;7.10;99.90
4399;DHT22;2213;49.720;7.296;2022-11-21T11:10:43;7.10;99.90
4399;DHT22;2213;49.720;7.296;2022-11-21T11:13:15;7.10;99.90
4399;DHT22;2213;49.720;7.296;2022-11-21T11:16:18;7.10;99.90
4399;DHT22;2213;49.720;7.296;2022-11-21T11:18:54;7.20;99.90
4399;DHT22;2213;49.720;7.296;2022-11-21T11:21:28;7.10;99.90
4399;DHT22;2213;49.720;7.296;2022-11-21T11:24:22;7.30;99.90
4399;DHT22;2213;49.720;7.296;2022-11-21T11:26:58;7.20;99.90
4399;DHT22;2213;49.720;7.296;2022-11-21T11:29:30;7.30;99.90
4399;DHT22;2213;49.720;7.296;2022-11-21T11:32:12;7.30;99.90
4399;DHT22;2213;49.720;7.296;2022-11-21T11:34:56;7.20;99.90
4399;DHT22;2213;49.720;7.296;2022-11-21T11:37:33;7.30;99.90
4399;DHT22;2213;49.720;7.296;2022-11-21T11:40:18;7.40;99.90
4399;DHT22;2213;49.720;7.296;2022-11-21T11:46:33;7.40;99.90
4399;DHT22;2213;49.720;7.296;2022-11-21T11:49:34;7.40;99.90
4399;DHT22;2213;49.720;7.296;2022-11-21T11:52:24;7.40;99.90
4399;DHT22;2213;49.720;7.296;2022-11-21T11:55:02;7.40;99.90
4399;DHT22;2213;49.720;7.296;2022-11-21T11:57:38;7.50;99.90
4399;DHT22;2213;49.720;7.296;2022-11-21T12:00:26;7.50;99.90
4399;DHT22;2213;49.720;7.296;2022-11-21T12:03:09;7.50;99.90
4399;DHT22;2213;49.720;7.296;2022-11-21T12:05:56;7.50;99.90
4399;DHT22;2213;49.720;7.296;2022-11-21T12:08:41;7.50;99.90
4399;DHT22;2213;49.720;7.296;2022-11-21T12:11:24;7.60;99.90
4399;DHT22;2213;49.720;7.296;2022-11-21T12:14:29;7.60;99.90
4399;DHT22;2213;49.720;7.296;2022-11-21T12:17:26;7.60;99.90
4399;DHT22;2213;49.720;7.296;2022-11-21T12:20:07;7.60;99.90
4399;DHT22;2213;49.720;7.296;2022-11-21T12:22:44;7.70;99.90
4399;DHT22;2213;49.720;7.296;2022-11-21T12:25:18;7.80;99.90
4399;DHT22;2213;49.720;7.296;2022-11-21T12:27:53;7.70;99.90
4399;DHT22;2213;49.720;7.296;2022-11-21T12:30:42;7.70;99.90
4399;DHT22;2213;49.720;7.296;2022-11-21T12:33:38;7.70;99.90
4399;DHT22;2213;49.720;7.296;2022-11-21T12:36:25;7.60;99.90
4399;DHT22;2213;49.720;7.296;2022-11-21T12:42:33;7.80;99.90
4399;DHT22;2213;49.720;7.296;2022-11-21T12:45:31;7.80;99.90
4399;DHT22;2213;49.720;7.296;2022-11-21T12:48:14;7.80;99.90
4399;DHT22;2213;49.720;7.296;2022-11-21T12:51:30;7.90;99.90
4399;DHT22;2213;49.720;7.296;2022-11-21T12:54:54;7.80;99.90
4399;DHT22;2213;49.720;7.296;2022-11-21T12:57:49;7.80;99.90
4399;DHT22;2213;49.720;7.296;2022-11-21T13:00:42;7.80;99.90
4399;DHT22;2213;49.720;7.296;2022-11-21T13:03:43;7.70;99.90
4399;DHT22;2213;49.720;7.296;2022-11-21T13:06:23;7.80;99.90
4399;DHT22;2213;49.720;7.296;2022-11-21T13:08:59;7.80;99.90
4399;DHT22;2213;49.720;7.296;2022-11-21T13:11:39;7.80;99.90
4399;DHT22;2213;49.720;7.296;2022-11-21T13:14:40;7.90;99.90
4399;DHT22;2213;49.720;7.296;2022-11-21T13:17:28;8.00;99.90
4399;DHT22;2213;49.720;7.296;2022-11-21T13:20:19;7.90;99.90
4399;DHT22;2213;49.720;7.296;2022-11-21T13:22:56;8.00;99.90
4399;DHT22;2213;49.720;7.296;2022-11-21T13:25:42;8.00;99.90
4399;DHT22;2213;49.720;7.296;2022-11-21T13:28:34;8.10;99.90
4399;DHT22;2213;49.720;7.296;2022-11-21T13:31:27;8.00;99.90
4399;DHT22;2213;49.720;7.296;2022-11-21T13:33:59;8.10;99.90
4399;DHT22;2213;49.720;7.296;2022-11-21T13:36:41;8.10;99.90
4399;DHT22;2213;49.720;7.296;2022-11-21T13:39:32;8.10;99.90
4399;DHT22;2213;49.720;7.296;2022-11-21T13:42:05;8.20;99.90
4399;DHT22;2213;49.720;7.296;2022-11-21T13:44:53;8.10;99.90
4399;DHT22;2213;49.720;7.296;2022-11-21T13:47:50;8.00;99.90
4399;DHT22;2213;49.720;7.296;2022-11-21T13:54:28;8.00;99.90
4399;DHT22;2213;49.720;7.296;2022-11-21T13:57:19;8.10;99.90
4399;DHT22;2213;49.720;7.296;2022-11-21T14:00:15;7.90;99.90
4399;DHT22;2213;49.720;7.296;2022-11-21T14:06:36;8.00;99.90
4399;DHT22;2213;49.720;7.296;2022-11-21T14:09:21;8.10;99.90
4399;DHT22;2213;49.720;7.296;2022-11-21T14:11:55;8.20;99.90
4399;DHT22;2213;49.720;7.296;2022-11-21T14:14:30;8.20;99.90
4399;DHT22;2213;49.720;7.296;2022-11-21T14:17:30;8.20;99.90
4399;DHT22;2213;49.720;7.296;2022-11-21T14:20:15;8.10;99.90
4399;DHT22;2213;49.720;7.296;2022-11-21T14:22:53;8.10;99.90
4399;DHT22;2213;49.720;7.296;2022-11-21T14:25:51;8.20;99.90
4399;DHT22;2213;49.720;7.296;2022-11-21T14:28:24;8.20;99.90
4399;DHT22;2213;49.720;7.296;2022-11-21T14:30:58;8.20;99.90
4399;DHT22;2213;49.720;7.296;2022-11-21T14:33:30;8.20;99.90
4399;DHT22;2213;49.720;7.296;2022-11-21T14:36:06;8.20;99.90
4399;DHT22;2213;49.720;7.296;2022-11-21T14:38:41;8.10;99.90
4399;DHT22;2213;49.720;7.296;2022-11-21T14:41:28;8.10;99.90
4399;DHT22;2213;49.720;7.296;2022-11-21T14:44:16;8.10;99.90
4399;DHT22;2213;49.720;7.296;2022-11-21T14:46:47;8.10;99.90
4399;DHT22;2213;49.720;7.296;2022-11-21T14:49:24;8.20;99.90
4399;DHT22;2213;49.720;7.296;2022-11-21T14:52:16;8.20;99.90
4399;DHT22;2213;49.720;7.296;2022-11-21T14:54:50;8.20;99.90
4399;DHT22;2213;49.720;7.296;2022-11-21T14:57:43;8.10;99.90
4399;DHT22;2213;49.720;7.296;2022-11-21T15:00:15;8.20;99.90
4399;DHT22;2213;49.720;7.296;2022-11-21T15:03:17;8.10;99.90
4399;DHT22;2213;49.720;7.296;2022-11-21T15:05:48;8.10;99.90
4399;DHT22;2213;49.720;7.296;2022-11-21T15:08:35;8.10;99.90
4399;DHT22;2213;49.720;7.296;2022-11-21T15:11:33;8.10;99.90
4399;DHT22;2213;49.720;7.296;2022-11-21T15:14:17;8.00;99.90
4399;DHT22;2213;49.720;7.296;2022-11-21T15:16:53;7.90;99.90
4399;DHT22;2213;49.720;7.296;2022-11-21T15:19:26;7.90;99.90
4399;DHT22;2213;49.720;7.296;2022-11-21T15:21:58;8.00;99.90
4399;DHT22;2213;49.720;7.296;2022-11-21T15:24:34;8.00;99.90
4399;DHT22;2213;49.720;7.296;2022-11-21T15:27:28;7.90;99.90
4399;DHT22;2213;49.720;7.296;2022-11-21T15:30:24;7.80;99.90
4399;DHT22;2213;49.720;7.296;2022-11-21T15:33:02;7.80;99.90
4399;DHT22;2213;49.720;7.296;2022-11-21T15:35:47;7.80;99.90
4399;DHT22;2213;49.720;7.296;2022-11-21T15:38:27;7.70;99.90
4399;DHT22;2213;49.720;7.296;2022-11-21T15:41:22;7.70;99.90
4399;DHT22;2213;49.720;7.296;2022-11-21T15:43:54;7.80;99.90
4399;DHT22;2213;49.720;7.296;2022-11-21T15:46:26;7.80;99.90
4399;DHT22;2213;49.720;7.296;2022-11-21T15:48:58;7.80;99.90
4399;DHT22;2213;49.720;7.296;2022-11-21T15:51:49;7.80;99.90
4399;DHT22;2213;49.720;7.296;2022-11-21T15:54:35;7.90;99.90
4399;DHT22;2213;49.720;7.296;2022-11-21T15:57:07;7.80;99.90
4399;DHT22;2213;49.720;7.296;2022-11-21T15:59:37;7.80;99.90
4399;DHT22;2213;49.720;7.296;2022-11-21T16:02:11;7.80;99.90
4399;DHT22;2213;49.720;7.296;2022-11-21T16:04:41;7.70;99.90
4399;DHT22;2213;49.720;7.296;2022-11-21T16:07:10;7.70;99.90
4399;DHT22;2213;49.720;7.296;2022-11-21T16:09:39;7.70;99.90
4399;DHT22;2213;49.720;7.296;2022-11-21T16:12:11;7.90;99.90
4399;DHT22;2213;49.720;7.296;2022-11-21T16:14:41;7.80;99.90
4399;DHT22;2213;49.720;7.296;2022-11-21T16:17:11;7.80;99.90
4399;DHT22;2213;49.720;7.296;2022-11-21T16:19:42;7.80;99.90
4399;DHT22;2213;49.720;7.296;2022-11-21T16:22:12;7.80;99.90
4399;DHT22;2213;49.720;7.296;2022-11-21T16:24:43;7.80;99.90
4399;DHT22;2213;49.720;7.296;2022-11-21T16:27:12;7.80;99.90
4399;DHT22;2213;49.720;7.296;2022-11-21T16:29:41;7.70;99.90
4399;DHT22;2213;49.720;7.296;2022-11-21T16:32:12;7.60;99.90
4399;DHT22;2213;49.720;7.296;2022-11-21T16:34:40;7.60;99.90
4399;DHT22;2213;49.720;7.296;2022-11-21T16:37:10;7.60;99.90
4399;DHT22;2213;49.720;7.296;2022-11-21T16:39:38;7.60;99.90
4399;DHT22;2213;49.720;7.296;2022-11-21T16:42:09;7.60;99.90
4399;DHT22;2213;49.720;7.296;2022-11-21T16:44:39;7.60;99.90
4399;DHT22;2213;49.720;7.296;2022-11-21T16:47:08;7.60;99.90
4399;DHT22;2213;49.720;7.296;2022-11-21T16:49:38;7.70;99.90
4399;DHT22;2213;49.720;7.296;2022-11-21T16:52:10;7.60;99.90
4399;DHT22;2213;49.720;7.296;2022-11-21T16:54:40;7.60;99.90
4399;DHT22;2213;49.720;7.296;2022-11-21T16:57:09;7.60;99.90
4399;DHT22;2213;49.720;7.296;2022-11-21T16:59:38;7.60;99.90
4399;DHT22;2213;49.720;7.296;2022-11-21T17:02:08;7.60;99.90
4399;DHT22;2213;49.720;7.296;2022-11-21T17:04:40;7.70;99.90
4399;DHT22;2213;49.720;7.296;2022-11-21T17:07:10;7.60;99.90
4399;DHT22;2213;49.720;7.296;2022-11-21T17:09:40;7.60;99.90
4399;DHT22;2213;49.720;7.296;2022-11-21T17:12:09;7.50;99.90
4399;DHT22;2213;49.720;7.296;2022-11-21T17:14:39;7.50;99.90
4399;DHT22;2213;49.720;7.296;2022-11-21T17:17:09;7.50;99.90
4399;DHT22;2213;49.720;7.296;2022-11-21T17:19:40;7.40;99.90
4399;DHT22;2213;49.720;7.296;2022-11-21T17:22:10;7.40;99.90
4399;DHT22;2213;49.720;7.296;2022-11-21T17:24:39;7.30;99.90